Terminal Aerodrome Forecast
Issued by NWS

Home | Current Version | Previous Version | Text Only | Print | Product List | Glossary On
Versions: 1 2 3 4 5 6 7 8 9 10 11 12 13 14 15 16 17 18 19 20 21 22 23 24 25 26 27 28 29 30 31 32
000
FTUS43 KDLH 310900 AAA
TAFHYR
TAF AMD
KHYR 310913Z 3109/0106 00000KT P6SM FEW070
      TEMPO 3109/3113 3SM BR BKN010
     FM311300 13004KT P6SM BKN035
     FM311900 16009G15KT P6SM SCT080
     FM010100 18008KT P6SM VCSH BKN060=

USA.gov is the U.S. government's official web portal to all federal, state and local government web resources and services.